Time,TemperatureF,DewpointF,PressureIn,WindDirection,WindDirectionDegrees,WindSpeedMPH,WindSpeedGustMPH,Humidity,HourlyPrecipIn,Conditions,Clouds,dailyrainin,SoftwareType,DateUTC
2013-03-28 00:02:00,51.0,38.0,-100.00,NNE,28,4.0,6.0,61,-99.99,,,-99.99,,2013-03-28 07:02:00,
2013-03-28 00:12:00,51.0,38.0,-100.00,NNE,16,3.0,5.0,62,-99.99,,,-99.99,,2013-03-28 07:12:00,
2013-03-28 00:22:00,51.0,38.0,-100.00,NNE,20,4.0,8.0,61,-99.99,,,-99.99,,2013-03-28 07:22:00,
2013-03-28 00:32:00,51.0,37.0,-100.00,NNE,13,5.0,7.0,58,-99.99,,,-99.99,,2013-03-28 07:32:00,
2013-03-28 00:42:00,51.0,37.0,-100.00,NNE,19,5.0,9.0,58,-99.99,,,-99.99,,2013-03-28 07:42:00,
2013-03-28 00:52:00,51.0,36.0,-100.00,North,11,5.0,8.0,57,-99.99,,,-99.99,,2013-03-28 07:52:00,
2013-03-28 01:02:00,52.0,37.0,-100.00,North,9,5.0,7.0,57,-99.99,,,-99.99,,2013-03-28 08:02:00,
2013-03-28 01:11:00,52.0,37.0,-100.00,North,7,5.0,7.0,57,-99.99,,,-99.99,,2013-03-28 08:11:00,
2013-03-28 01:21:00,52.0,37.0,-100.00,North,3,4.0,7.0,56,-99.99,,,-99.99,,2013-03-28 08:21:00,
2013-03-28 01:32:00,52.0,37.0,-100.00,North,3,4.0,7.0,56,-99.99,,,-99.99,,2013-03-28 08:32:00,
2013-03-28 01:42:00,52.0,36.0,-100.00,North,354,5.0,10.0,55,-99.99,,,-99.99,,2013-03-28 08:42:00,
2013-03-28 01:52:00,52.0,37.0,-100.00,North,355,5.0,8.0,56,-99.99,,,-99.99,,2013-03-28 08:52:00,
2013-03-28 02:01:00,53.0,37.0,-100.00,North,357,5.0,8.0,54,-99.99,,,-99.99,,2013-03-28 09:01:00,
2013-03-28 02:11:00,53.0,36.0,-100.00,North,355,5.0,8.0,53,-99.99,,,-99.99,,2013-03-28 09:11:00,
2013-03-28 02:22:00,53.0,36.0,-100.00,North,350,5.0,9.0,53,-99.99,,,-99.99,,2013-03-28 09:22:00,
2013-03-28 02:32:00,53.0,36.0,-100.00,North,351,5.0,8.0,52,-99.99,,,-99.99,,2013-03-28 09:32:00,
2013-03-28 02:42:00,53.0,36.0,-100.00,North,358,5.0,8.0,52,-99.99,,,-99.99,,2013-03-28 09:42:00,
2013-03-28 02:52:00,53.0,36.0,-100.00,North,11,5.0,11.0,52,-99.99,,,-99.99,,2013-03-28 09:52:00,
2013-03-28 03:02:00,53.0,36.0,-100.00,North,5,6.0,11.0,53,-99.99,,,-99.99,,2013-03-28 10:02:00,
2013-03-28 03:12:00,52.0,36.0,-100.00,NNE,17,5.0,9.0,54,-99.99,,,-99.99,,2013-03-28 10:12:00,
2013-03-28 03:22:00,53.0,36.0,-100.00,NNE,13,6.0,9.0,53,-99.99,,,-99.99,,2013-03-28 10:22:00,
2013-03-28 03:32:00,52.0,36.0,-100.00,NNE,25,6.0,8.0,55,-99.99,,,-99.99,,2013-03-28 10:32:00,
2013-03-28 03:42:00,52.0,37.0,-100.00,NNE,21,6.0,8.0,56,-99.99,,,-99.99,,2013-03-28 10:42:00,
2013-03-28 03:52:00,52.0,37.0,-100.00,NNE,25,6.0,8.0,57,-99.99,,,-99.99,,2013-03-28 10:52:00,
2013-03-28 04:02:00,52.0,37.0,-100.00,NNE,27,6.0,9.0,56,-99.99,,,-99.99,,2013-03-28 11:02:00,
2013-03-28 04:12:00,52.0,37.0,-100.00,NNE,27,6.0,9.0,56,-99.99,,,-99.99,,2013-03-28 11:12:00,
2013-03-28 04:22:00,52.0,37.0,-100.00,NNE,27,6.0,9.0,56,-99.99,,,-99.99,,2013-03-28 11:22:00,
2013-03-28 04:32:00,52.0,37.0,-100.00,NNE,30,6.0,9.0,56,-99.99,,,-99.99,,2013-03-28 11:32:00,
2013-03-28 04:42:00,52.0,36.0,-100.00,NE,36,6.0,9.0,55,-99.99,,,-99.99,,2013-03-28 11:42:00,
2013-03-28 04:52:00,53.0,37.0,-100.00,NNE,32,6.0,8.0,54,-99.99,,,-99.99,,2013-03-28 11:52:00,
2013-03-28 05:02:00,53.0,36.0,-100.00,NE,38,6.0,9.0,53,-99.99,,,-99.99,,2013-03-28 12:02:00,
2013-03-28 05:12:00,53.0,35.0,-100.00,NE,40,6.0,8.0,51,-99.99,,,-99.99,,2013-03-28 12:12:00,
2013-03-28 05:22:00,53.0,35.0,-100.00,NE,37,6.0,8.0,50,-99.99,,,-99.99,,2013-03-28 12:22:00,
2013-03-28 05:32:00,53.0,34.0,-100.00,NNE,33,5.0,8.0,49,-99.99,,,-99.99,,2013-03-28 12:32:00,
2013-03-28 05:42:00,53.0,33.0,-100.00,NNE,27,6.0,8.0,46,-99.99,,,-99.99,,2013-03-28 12:42:00,
2013-03-28 05:51:00,53.0,33.0,-100.00,NNE,27,4.0,8.0,46,-99.99,,,-99.99,,2013-03-28 12:51:00,
2013-03-28 06:02:00,53.0,32.0,-100.00,NNE,30,4.0,6.0,44,-99.99,,,-99.99,,2013-03-28 13:02:00,
2013-03-28 06:11:00,53.0,31.0,-100.00,NE,34,5.0,7.0,42,-99.99,,,-99.99,,2013-03-28 13:11:00,
2013-03-28 06:22:00,53.0,31.0,-100.00,NE,42,5.0,8.0,42,-99.99,,,-99.99,,2013-03-28 13:22:00,
2013-03-28 06:32:00,53.0,29.0,-100.00,NE,45,5.0,7.0,40,-99.99,,,-99.99,,2013-03-28 13:32:00,
2013-03-28 06:41:00,53.0,29.0,-100.00,NE,41,5.0,6.0,40,-99.99,,,-99.99,,2013-03-28 13:41:00,
2013-03-28 06:52:00,53.0,28.0,-100.00,NE,40,5.0,6.0,38,-99.99,,,-99.99,,2013-03-28 13:52:00,
2013-03-28 07:02:00,53.0,28.0,-100.00,NE,40,5.0,6.0,38,-99.99,,,-99.99,,2013-03-28 14:02:00,
2013-03-28 07:12:00,52.0,27.0,-100.00,NE,55,4.0,5.0,37,-99.99,,,-99.99,,2013-03-28 14:12:00,
2013-03-28 07:22:00,53.0,24.0,-100.00,NE,38,4.0,6.0,32,-99.99,,,-99.99,,2013-03-28 14:22:00,
2013-03-28 07:42:00,54.0,23.0,-100.00,NNE,25,2.0,4.0,30,-99.99,,,-99.99,,2013-03-28 14:42:00,
2013-03-28 07:51:00,54.0,23.0,-100.00,NNE,25,2.0,4.0,30,-99.99,,,-99.99,,2013-03-28 14:51:00,
2013-03-28 08:02:00,55.0,25.0,-100.00,SE,141,1.0,3.0,31,-99.99,,,-99.99,,2013-03-28 15:02:00,
2013-03-28 08:11:00,55.0,26.0,-100.00,East,100,2.0,4.0,32,-99.99,,,-99.99,,2013-03-28 15:11:00,
2013-03-28 08:21:00,55.0,26.0,-100.00,East,99,2.0,3.0,32,-99.99,,,-99.99,,2013-03-28 15:21:00,
2013-03-28 08:32:00,56.0,26.0,-100.00,NW,322,1.0,3.0,31,-99.99,,,-99.99,,2013-03-28 15:32:00,
2013-03-28 08:43:00,57.0,28.0,-100.00,NW,311,2.0,4.0,33,-99.99,,,-99.99,,2013-03-28 15:43:00,
2013-03-28 08:52:00,57.0,31.0,-100.00,WNW,298,3.0,5.0,37,-99.99,,,-99.99,,2013-03-28 15:52:00,
2013-03-28 09:02:00,57.0,30.0,-100.00,NW,308,4.0,5.0,36,-99.99,,,-99.99,,2013-03-28 16:02:00,
2013-03-28 09:12:00,58.0,31.0,-100.00,NW,317,4.0,5.0,35,-99.99,,,-99.99,,2013-03-28 16:12:00,
2013-03-28 09:22:00,59.0,32.0,-100.00,NW,313,3.0,6.0,36,-99.99,,,-99.99,,2013-03-28 16:22:00,
2013-03-28 09:32:00,60.0,31.0,-100.00,NW,314,5.0,7.0,33,-99.99,,,-99.99,,2013-03-28 16:32:00,
2013-03-28 09:42:00,59.0,33.0,-100.00,WNW,283,3.0,7.0,37,-99.99,,,-99.99,,2013-03-28 16:42:00,
2013-03-28 09:52:00,59.0,35.0,-100.00,West,278,2.0,5.0,41,-99.99,,,-99.99,,2013-03-28 16:52:00,
2013-03-28 10:02:00,60.0,35.0,-100.00,WNW,284,3.0,4.0,39,-99.99,,,-99.99,,2013-03-28 17:02:00,
2013-03-28 10:12:00,61.0,35.0,-100.00,WNW,285,3.0,6.0,38,-99.99,,,-99.99,,2013-03-28 17:12:00,
2013-03-28 10:21:00,61.0,36.0,-100.00,WNW,286,3.0,6.0,39,-99.99,,,-99.99,,2013-03-28 17:21:00,
2013-03-28 10:32:00,61.0,36.0,-100.00,WNW,286,5.0,7.0,40,-99.99,,,-99.99,,2013-03-28 17:32:00,
2013-03-28 10:42:00,61.0,38.0,-100.00,WNW,286,5.0,8.0,42,-99.99,,,-99.99,,2013-03-28 17:42:00,
2013-03-28 10:52:00,62.0,38.0,-100.00,WNW,292,5.0,8.0,41,-99.99,,,-99.99,,2013-03-28 17:52:00,
2013-03-28 11:02:00,61.0,38.0,-100.00,West,279,5.0,8.0,43,-99.99,,,-99.99,,2013-03-28 18:02:00,
2013-03-28 11:12:00,62.0,38.0,-100.00,WNW,293,5.0,9.0,41,-99.99,,,-99.99,,2013-03-28 18:12:00,
2013-03-28 11:22:00,62.0,38.0,-100.00,West,275,5.0,9.0,41,-99.99,,,-99.99,,2013-03-28 18:22:00,
2013-03-28 11:32:00,62.0,39.0,-100.00,West,280,4.0,8.0,42,-99.99,,,-99.99,,2013-03-28 18:32:00,
2013-03-28 11:42:00,62.0,37.0,-100.00,West,268,4.0,7.0,39,-99.99,,,-99.99,,2013-03-28 18:42:00,
2013-03-28 11:52:00,62.0,37.0,-100.00,WNW,285,4.0,10.0,39,-99.99,,,-99.99,,2013-03-28 18:52:00,
2013-03-28 12:01:00,63.0,36.0,-100.00,WNW,302,5.0,10.0,37,-99.99,,,-99.99,,2013-03-28 19:01:00,
2013-03-28 12:12:00,63.0,36.0,-100.00,WNW,282,5.0,11.0,37,-99.99,,,-99.99,,2013-03-28 19:12:00,
2013-03-28 12:22:00,63.0,36.0,-100.00,WNW,285,6.0,11.0,37,-99.99,,,-99.99,,2013-03-28 19:22:00,
2013-03-28 12:32:00,63.0,38.0,-100.00,West,275,7.0,12.0,39,-99.99,,,-99.99,,2013-03-28 19:32:00,
2013-03-28 12:42:00,63.0,38.0,-100.00,WNW,286,6.0,11.0,39,-99.99,,,-99.99,,2013-03-28 19:42:00,
2013-03-28 12:52:00,63.0,36.0,-100.00,West,268,4.0,10.0,37,-99.99,,,-99.99,,2013-03-28 19:52:00,
2013-03-28 13:02:00,63.0,38.0,-100.00,West,265,6.0,13.0,39,-99.99,,,-99.99,,2013-03-28 20:02:00,
2013-03-28 13:12:00,64.0,34.0,-100.00,NW,312,6.0,11.0,33,-99.99,,,-99.99,,2013-03-28 20:12:00,
2013-03-28 13:22:00,64.0,34.0,-100.00,NW,305,6.0,10.0,33,-99.99,,,-99.99,,2013-03-28 20:22:00,
2013-03-28 13:32:00,64.0,34.0,-100.00,WNW,291,7.0,12.0,33,-99.99,,,-99.99,,2013-03-28 20:32:00,
2013-03-28 13:42:00,65.0,35.0,-100.00,WNW,294,7.0,12.0,33,-99.99,,,-99.99,,2013-03-28 20:42:00,
2013-03-28 13:52:00,65.0,34.0,-100.00,West,280,5.0,13.0,32,-99.99,,,-99.99,,2013-03-28 20:52:00,
2013-03-28 14:02:00,65.0,35.0,-100.00,WNW,284,7.0,13.0,33,-99.99,,,-99.99,,2013-03-28 21:02:00,
2013-03-28 14:12:00,65.0,34.0,-100.00,WNW,283,8.0,13.0,32,-99.99,,,-99.99,,2013-03-28 21:12:00,
2013-03-28 14:22:00,66.0,35.0,-100.00,WNW,288,8.0,14.0,32,-99.99,,,-99.99,,2013-03-28 21:22:00,
2013-03-28 14:32:00,65.0,36.0,-100.00,WNW,300,9.0,18.0,34,-99.99,,,-99.99,,2013-03-28 21:32:00,
2013-03-28 14:42:00,65.0,36.0,-100.00,West,276,8.0,15.0,34,-99.99,,,-99.99,,2013-03-28 21:42:00,
2013-03-28 14:52:00,65.0,37.0,-100.00,WNW,287,8.0,14.0,35,-99.99,,,-99.99,,2013-03-28 21:52:00,
2013-03-28 15:02:00,66.0,38.0,-100.00,West,267,9.0,15.0,35,-99.99,,,-99.99,,2013-03-28 22:02:00,
2013-03-28 15:12:00,65.0,39.0,-100.00,WSW,255,8.0,15.0,38,-99.99,,,-99.99,,2013-03-28 22:12:00,
2013-03-28 15:22:00,65.0,41.0,-100.00,WNW,292,7.0,14.0,41,-99.99,,,-99.99,,2013-03-28 22:22:00,
2013-03-28 15:32:00,65.0,43.0,-100.00,West,263,7.0,14.0,44,-99.99,,,-99.99,,2013-03-28 22:32:00,
2013-03-28 15:42:00,65.0,43.0,-100.00,West,262,7.0,14.0,44,-99.99,,,-99.99,,2013-03-28 22:42:00,
2013-03-28 15:52:00,64.0,42.0,-100.00,West,266,7.0,12.0,45,-99.99,,,-99.99,,2013-03-28 22:52:00,
2013-03-28 16:02:00,64.0,43.0,-100.00,WSW,244,6.0,12.0,46,-99.99,,,-99.99,,2013-03-28 23:02:00,
2013-03-28 16:12:00,64.0,44.0,-100.00,WSW,250,6.0,12.0,48,-99.99,,,-99.99,,2013-03-28 23:12:00,
2013-03-28 16:21:00,63.0,44.0,-100.00,West,276,6.0,12.0,50,-99.99,,,-99.99,,2013-03-28 23:21:00,
2013-03-28 16:32:00,62.0,44.0,-100.00,WSW,246,5.0,11.0,52,-99.99,,,-99.99,,2013-03-28 23:32:00,
2013-03-28 16:42:00,62.0,44.0,-100.00,WSW,255,4.0,10.0,52,-99.99,,,-99.99,,2013-03-28 23:42:00,
2013-03-28 16:52:00,63.0,45.0,-100.00,WNW,285,5.0,10.0,52,-99.99,,,-99.99,,2013-03-28 23:52:00,
2013-03-28 17:02:00,63.0,44.0,-100.00,WNW,288,6.0,12.0,49,-99.99,,,-99.99,,2013-03-29 00:02:00,
2013-03-28 17:11:00,63.0,44.0,-100.00,WSW,243,6.0,10.0,49,-99.99,,,-99.99,,2013-03-29 00:11:00,
2013-03-28 17:22:00,63.0,42.0,-100.00,West,270,6.0,10.0,47,-99.99,,,-99.99,,2013-03-29 00:22:00,
2013-03-28 17:32:00,62.0,42.0,-100.00,NW,310,6.0,10.0,47,-99.99,,,-99.99,,2013-03-29 00:32:00,
2013-03-28 17:42:00,62.0,42.0,-100.00,NW,310,6.0,10.0,47,-99.99,,,-99.99,,2013-03-29 00:42:00,
2013-03-28 17:52:00,63.0,42.0,-100.00,WNW,283,5.0,10.0,47,-99.99,,,-99.99,,2013-03-29 00:52:00,
2013-03-28 18:02:00,63.0,42.0,-100.00,WNW,282,5.0,9.0,46,-99.99,,,-99.99,,2013-03-29 01:02:00,
2013-03-28 18:12:00,63.0,42.0,-100.00,WNW,286,5.0,8.0,46,-99.99,,,-99.99,,2013-03-29 01:12:00,
2013-03-28 18:22:00,62.0,42.0,-100.00,WNW,303,5.0,10.0,47,-99.99,,,-99.99,,2013-03-29 01:22:00,
2013-03-28 18:31:00,61.0,42.0,-100.00,WNW,293,5.0,8.0,49,-99.99,,,-99.99,,2013-03-29 01:31:00,
2013-03-28 18:42:00,61.0,42.0,-100.00,WNW,299,4.0,7.0,50,-99.99,,,-99.99,,2013-03-29 01:42:00,
2013-03-28 18:52:00,61.0,42.0,-100.00,NW,305,4.0,7.0,50,-99.99,,,-99.99,,2013-03-29 01:52:00,
2013-03-28 19:02:00,60.0,42.0,-100.00,NW,306,4.0,6.0,51,-99.99,,,-99.99,,2013-03-29 02:02:00,
2013-03-28 19:11:00,59.0,42.0,-100.00,NW,319,3.0,5.0,54,-99.99,,,-99.99,,2013-03-29 02:11:00,
2013-03-28 19:21:00,58.0,42.0,-100.00,North,349,4.0,5.0,56,-99.99,,,-99.99,,2013-03-29 02:21:00,
2013-03-28 19:32:00,58.0,42.0,-100.00,NNE,15,4.0,5.0,56,-99.99,,,-99.99,,2013-03-29 02:32:00,
2013-03-28 19:42:00,58.0,41.0,-100.00,North,10,4.0,7.0,53,-99.99,,,-99.99,,2013-03-29 02:42:00,
2013-03-28 19:52:00,59.0,39.0,-100.00,NNE,21,5.0,7.0,48,-99.99,,,-99.99,,2013-03-29 02:52:00,
2013-03-28 20:02:00,59.0,40.0,-100.00,NNE,18,6.0,9.0,49,-99.99,,,-99.99,,2013-03-29 03:02:00,
2013-03-28 20:12:00,59.0,39.0,-100.00,NNE,28,6.0,9.0,48,-99.99,,,-99.99,,2013-03-29 03:12:00,
2013-03-28 20:21:00,59.0,38.0,-100.00,NNE,24,6.0,9.0,45,-99.99,,,-99.99,,2013-03-29 03:21:00,
2013-03-28 20:32:00,60.0,36.0,-100.00,NNE,22,6.0,12.0,41,-99.99,,,-99.99,,2013-03-29 03:32:00,
2013-03-28 20:42:00,60.0,33.0,-100.00,NNE,12,6.0,9.0,36,-99.99,,,-99.99,,2013-03-29 03:42:00,
2013-03-28 20:52:00,60.0,32.0,-100.00,NNE,13,6.0,9.0,34,-99.99,,,-99.99,,2013-03-29 03:52:00,
2013-03-28 21:02:00,59.0,32.0,-100.00,NNE,17,5.0,8.0,36,-99.99,,,-99.99,,2013-03-29 04:02:00,
2013-03-28 21:12:00,59.0,32.0,-100.00,NNE,23,6.0,9.0,36,-99.99,,,-99.99,,2013-03-29 04:12:00,
2013-03-28 21:22:00,59.0,33.0,-100.00,NNE,14,6.0,10.0,38,-99.99,,,-99.99,,2013-03-29 04:22:00,
2013-03-28 21:32:00,59.0,36.0,-100.00,North,11,5.0,8.0,42,-99.99,,,-99.99,,2013-03-29 04:32:00,
2013-03-28 21:42:00,59.0,38.0,-100.00,North,352,2.0,5.0,46,-99.99,,,-99.99,,2013-03-29 04:42:00,
2013-03-28 21:52:00,57.0,38.0,-100.00,North,8,1.0,3.0,48,-99.99,,,-99.99,,2013-03-29 04:52:00,
2013-03-28 22:02:00,56.0,38.0,-100.00,ESE,106,1.0,3.0,51,-99.99,,,-99.99,,2013-03-29 05:02:00,
2013-03-28 22:12:00,56.0,40.0,-100.00,ENE,74,2.0,4.0,55,-99.99,,,-99.99,,2013-03-29 05:12:00,
2013-03-28 22:22:00,56.0,41.0,-100.00,North,350,2.0,4.0,57,-99.99,,,-99.99,,2013-03-29 05:22:00,
2013-03-28 22:32:00,55.0,41.0,-100.00,NW,323,2.0,4.0,60,-99.99,,,-99.99,,2013-03-29 05:32:00,
2013-03-28 22:42:00,53.0,42.0,-100.00,East,83,4.0,6.0,65,-99.99,,,-99.99,,2013-03-29 05:42:00,
2013-03-28 22:52:00,53.0,41.0,-100.00,ESE,111,4.0,5.0,63,-99.99,,,-99.99,,2013-03-29 05:52:00,
2013-03-28 23:02:00,54.0,41.0,-100.00,ENE,64,4.0,5.0,61,-99.99,,,-99.99,,2013-03-29 06:02:00,
2013-03-28 23:12:00,55.0,41.0,-100.00,NE,56,3.0,5.0,59,-99.99,,,-99.99,,2013-03-29 06:12:00,
2013-03-28 23:22:00,54.0,40.0,-100.00,South,170,2.0,3.0,59,-99.99,,,-99.99,,2013-03-29 06:22:00,
2013-03-28 23:32:00,54.0,40.0,-100.00,East,94,2.0,5.0,60,-99.99,,,-99.99,,2013-03-29 06:32:00,
2013-03-28 23:42:00,53.0,40.0,-100.00,ESE,108,4.0,6.0,62,-99.99,,,-99.99,,2013-03-29 06:42:00,
2013-03-28 23:52:00,54.0,40.0,-100.00,ESE,116,4.0,5.0,60,-99.99,,,-99.99,,2013-03-29 06:52:00,